map of KJVW home
Great Circle Mapper logo
KJVW - Airport
Location
City:  Raymond, Mississippi, United States
Name:John Bell Williams Airport
ICAO:KJVW
FAA:JVW

Details
Type:Airport (Airfield)
Use:Public/Civil
Latitude:3218'16"N (32.304472)
Longitude:9024'38"W (-90.410527)
Datum:WGS 1984
Elevation:247 ft (75 m)
Runways:1
Longest:5499 × 100 ft (1676 × 30.5 m), paved

Time
Time Zone:UTC-6 (DST-5)
Local Time:

Weather
METAR:KJVW 241355Z AUTO 00000KT 8SM CLR 27/24 A3003 RMK AO2

Related Locations
Nearby:
Farthest:CCK: 10973 mi / 17659 km
West Island (Pulau Panjang) [Cocos (Keeling) Islands], CC

Find:

   beyond  
but within

Other Information
Maps:
NOTAMs:
Links:
Sources:

  
flag of United States
flag of Mississippi
  

Sectional Chart

Flight Planning
at skyvector.com

Satellite Image

Google Maps Satellite View

 

Copyright © 2004-2014 Karl L. Swartz. All rights reserved.
The Great Circle Mapper name and logo are trademarks of the Great Circle Mapper.
All other trademarks mentioned herein belong to their respective owners.
Please see credits for attibutions and further copyright information.

  Follow gcmap on Facebook Follow gcmap on Twitter

hCard Microformat

Geo Microformat